Daily Tabular Data
[Select Refresh to Update]


12/10/17
Time         Wind Dir   Wind Spd  Wind Gust     Hum In   Humidity    Temp In       Temp  Raw Barom   Tot Rain Wind Chill Heat Ix In Heat Index  Dew Point  DailyRain   HourRain   RainRate
                            mph        mph          %          %         F         F         in         in         F         F         F         F         in         in      in/hr
12:00am            78          0          6         24         19       72.9       62.3      29.30       0.10       62.3       71.7       60.8       19.5       0.00       0.00      0.000
12:30am           122          3          3         24         17       72.9       65.1      29.30       0.10       65.1       71.7       63.5       19.2       0.00       0.00      0.000
1:00am             76          0          4         24         21       72.8       61.9      29.30       0.10       61.9       71.6       60.5       21.6       0.00       0.00      0.000
1:30am            236          0          3         25         27       72.7       65.0      29.29       0.10       65.0       71.6       64.0       30.2       0.00       0.00      0.000
2:00am            121          0          1         24         21       72.6       61.6      29.29       0.10       61.6       71.4       60.2       21.3       0.00       0.00      0.000
2:30am            128          3          3         24         25       72.3       59.0      29.29       0.10       59.0       71.1       57.9       23.3       0.00       0.00      0.000
3:00am             61          2          6         24         25       72.2       58.6      29.29       0.10       58.6       71.0       57.5       22.9       0.00       0.00      0.000
3:30am             88          0          3         24         22       72.1       59.1      29.28       0.10       59.1       70.9       57.8       20.3       0.00       0.00      0.000
4:00am             92          0          5         24         24       71.9       57.6      29.28       0.10       57.6       70.7       56.4       21.1       0.00       0.00      0.000
4:30am            113          0          4         24         22       71.9       59.1      29.28       0.10       59.1       70.7       57.8       20.3       0.00       0.00      0.000
5:00am             99          4          7         24         20       71.8       60.9      29.28       0.10       60.9       70.6       59.5       19.6       0.00       0.00      0.000
5:30am            103          0          4         24         22       71.7       58.9      29.29       0.10       58.9       70.5       57.6       20.1       0.00       0.00      0.000
6:00am            323          0          6         24         19       71.6       61.2      29.29       0.10       61.2       70.4       59.7       18.6       0.00       0.00      0.000
6:30am             95          1          3         24         21       71.6       61.9      29.30       0.10       61.9       70.4       60.5       21.6       0.00       0.00      0.000
7:00am            168          1          5         24         21       71.6       61.9      29.30       0.10       61.9       70.4       60.5       21.6       0.00       0.00      0.000
7:30am            111          0          3         24         20       71.6       63.2      29.30       0.10       63.2       70.4       61.8       21.5       0.00       0.00      0.000
8:00am             82          0          3         24         24       71.6       62.3      29.31       0.10       62.3       70.4       61.1       25.1       0.00       0.00      0.000
8:30am            120          2          4         24         22       71.5       65.5      29.31       0.10       65.5       70.3       64.2       25.7       0.00       0.00      0.000
9:00am             30          0          7         24         24       71.5       70.2      29.32       0.10       70.2       70.3       69.0       31.7       0.00       0.00      0.000
9:30am            252          0          3         23         22       71.7       74.8      29.31       0.10       74.8       70.5       73.5       33.4       0.00       0.00      0.000
10:00am           229          0          1         24         21       71.9       76.8      29.31       0.10       76.8       70.7       75.4       33.9       0.00       0.00      0.000
10:30am           268          0          2         24         16       72.0       78.3      29.30       0.10       78.3       70.8       76.7       28.5       0.00       0.00      0.000
11:00am           243          0          3         24         17       72.1       79.4      29.29       0.10       79.4       70.9       77.8       30.8       0.00       0.00      0.000
11:30am           261          0          4         24         12       72.2       82.7      29.28       0.10       82.7       71.0       80.1       25.0       0.00       0.00      0.000
12:00pm           103          8         14         24          9       72.3       85.3      29.27       0.10       85.3       71.1       82.1       20.1       0.00       0.00      0.000
12:30pm           142          8         18         25          8       72.5       84.6      29.25       0.10       84.6       71.4       81.6       16.9       0.00       0.00      0.000
1:00pm             89          4         16         25          8       72.7       85.0      29.24       0.10       85.0       71.6       81.9       17.2       0.00       0.00      0.000
1:30pm             74          0         13         25          9       72.8       83.9      29.23       0.10       83.9       71.7       81.0       19.1       0.00       0.00      0.000
2:00pm            280          0         12         25          9       72.9       83.9      29.23       0.10       83.9       71.8       81.0       19.1       0.00       0.00      0.000
2:30pm             65          2          6         25         10       73.0       82.7      29.23       0.10       82.7       71.9       80.1       20.6       0.00       0.00      0.000
3:00pm             65          2         11         25         10       73.1       81.1      29.23       0.10       81.1       72.0       78.9       19.4       0.00       0.00      0.000
3:30pm            104          7         16         26         10       73.2       80.1      29.23       0.10       80.1       72.1       78.2       18.7       0.00       0.00      0.000
4:00pm             32          3         17         26          9       73.4       79.3      29.23       0.10       79.3       72.3       77.4       15.6       0.00       0.00      0.000
4:30pm             58          0         13         26         11       73.4       77.0      29.24       0.10       77.0       72.3       75.2       18.5       0.00       0.00      0.000
5:00pm             12          0          4         26         15       73.5       75.2      29.25       0.10       75.2       72.4       73.5       24.4       0.00       0.00      0.000
5:30pm             51          0          1         26         14       73.6       72.8      29.26       0.10       72.8       72.5       71.1       20.9       0.00       0.00      0.000
6:00pm            109          0          6         27         13       73.6       72.9      29.26       0.10       72.9       72.6       71.1       19.2       0.00       0.00      0.000
6:30pm             71          2          6         27         14       73.6       71.8      29.27       0.10       71.8       72.6       70.1       20.1       0.00       0.00      0.000
7:00pm             74          0          4         27         14       73.6       70.5      29.28       0.10       70.5       72.6       68.8       19.0       0.00       0.00      0.000
7:30pm            107          0          1         27         15       73.7       69.0      29.28       0.10       69.0       72.7       67.3       19.5       0.00       0.00      0.000
8:00pm            107          0          1         26         16       73.7       67.3      29.29       0.10       67.3       72.6       65.7       19.6       0.00       0.00      0.000
8:30pm             84          0          7         26         31       73.7       71.2      29.29       0.10       71.2       72.6       70.5       39.0       0.00       0.00      0.000
9:00pm             86          0          6         26         17       73.7       66.4      29.30       0.10       66.4       72.6       64.8       20.3       0.00       0.00      0.000
9:30pm            268          0          3         25         21       73.6       64.5      29.31       0.10       64.5       72.5       63.1       23.7       0.00       0.00      0.000
10:00pm            72          0          2         25         19       73.6       63.9      29.31       0.10       63.9       72.5       62.4       20.9       0.00       0.00      0.000
10:30pm            63          0          1         25         19       73.6       65.3      29.31       0.10       65.3       72.5       63.8       22.0       0.00       0.00      0.000
11:00pm           109          0          6         25         21       73.5       66.7      29.31       0.10       66.7       72.4       65.3       25.6       0.00       0.00      0.000
11:30pm           109          0          0         25         19       73.5       65.5      29.31       0.10       65.5       72.4       64.0       22.2       0.00       0.00      0.000